This is the latest recevied weather packets stored in our database for station/object K0SDS. If no packets are shown the sender has not sent any weather packets the latest 10 day(s).
| Time | Temp. | Humidity | Pressure | Rain* | Wind** | Luminosity | Snow |
|---|---|---|---|---|---|---|---|
| 1787493791 | 21.67° C | 84% | 1020.5 hPa | 0 mm | - | 159 W/m² | - |
| 1787493491 | 21.67° C | 85% | 1020.3 hPa | 0 mm | - | 171 W/m² | - |
| 1787493186 | 21.11° C | 85% | 1020 hPa | 0 mm | - | 177 W/m² | - |
| 1787492882 | 21.11° C | 86% | 1020.5 hPa | 0 mm | - | 154 W/m² | - |
| 1787492578 | 21.11° C | 86% | 1020.5 hPa | 0 mm | - | 141 W/m² | - |
| 1787492273 | 20.56° C | 87% | 1020.4 hPa | 0 mm | - | 133 W/m² | - |
| 1787491968 | 20.56° C | 87% | 1020.5 hPa | 0 mm | - | 122 W/m² | - |
| 1787491664 | 20.56° C | 87% | 1019.9 hPa | 0 mm | - | 123 W/m² | - |
| 1787491358 | 20.56° C | 88% | 1020.3 hPa | 0 mm | - | 107 W/m² | - |
| 1787491054 | 20.56° C | 87% | 1020.4 hPa | 0 mm | - | 90 W/m² | - |
| 1787490750 | 20° C | 88% | 1019.7 hPa | 0 mm | - | 85 W/m² | - |
| 1787490449 | 20° C | 89% | 1019.8 hPa | 0 mm | - | 88 W/m² | - |
| 1787490148 | 20° C | 89% | 1020 hPa | 0 mm | - | 68 W/m² | - |
| 1787489842 | 20° C | 89% | 1020 hPa | 0 mm | - | 59 W/m² | - |
| 1787489538 | 20° C | 90% | 1019.7 hPa | 0 mm | - | 70 W/m² | - |
| 1787489234 | 19.44° C | 90% | 1019.6 hPa | 0 mm | - | 52 W/m² | - |
| 1787488930 | 18.89° C | 91% | 1019.8 hPa | 0 mm | - | 48 W/m² | - |
| 1787488625 | 18.89° C | 91% | 1019.4 hPa | 0 mm | - | 41 W/m² | - |
| 1787488322 | 18.89° C | 91% | 1019.4 hPa | 0 mm | - | 39 W/m² | - |
| 1787488019 | 18.89° C | 91% | 1019.3 hPa | 0 mm | - | 38 W/m² | - |
| 1787487714 | 18.89° C | 91% | 1019.2 hPa | 0 mm | - | 35 W/m² | - |
| 1787487411 | 18.33° C | 91% | 1019.2 hPa | 0 mm | - | 30 W/m² | - |
| 1787487108 | 18.33° C | 91% | 1019.3 hPa | 0 mm | - | 20 W/m² | - |
| 1787486807 | 18.33° C | 91% | 1019.4 hPa | 0 mm | - | 15 W/m² | - |
| 1787486502 | 18.33° C | 91% | 1019.5 hPa | 0 mm | - | 9 W/m² | - |
* Rain latest hour (hover to see other rain measurements)
** Current wind speed in m/s (hover to see current wind gust speed)